createdAt,value
2023-05-09T00:01:31.664Z,7.25
2023-05-09T00:04:00.395Z,6.65
2023-05-09T00:06:28.285Z,6.95
2023-05-09T00:08:55.834Z,7.38
2023-05-09T00:11:23.041Z,7.32
2023-05-09T00:13:50.744Z,6.20
2023-05-09T00:16:18.654Z,7.22
2023-05-09T00:18:45.615Z,6.40
2023-05-09T00:21:12.605Z,6.85
2023-05-09T00:23:39.458Z,7.03
2023-05-09T00:26:06.439Z,6.95
2023-05-09T00:28:33.478Z,7.07
2023-05-09T00:31:00.381Z,6.93
2023-05-09T00:33:27.250Z,6.75
2023-05-09T00:35:54.701Z,6.95
2023-05-09T00:38:23.545Z,7.18
2023-05-09T00:40:50.528Z,7.13
2023-05-09T00:43:17.767Z,7.15
2023-05-09T00:45:45.979Z,6.57
2023-05-09T00:48:33.161Z,6.88
2023-05-09T00:51:00.168Z,6.50
2023-05-09T00:53:27.820Z,7.35
2023-05-09T00:55:56.971Z,5.97
2023-05-09T00:58:24.203Z,6.18
2023-05-09T01:00:51.330Z,7.07
2023-05-09T01:03:18.506Z,6.38
2023-05-09T01:06:11.400Z,6.35
2023-05-09T01:08:50.127Z,6.25
2023-05-09T01:11:39.329Z,7.07
2023-05-09T01:14:12.569Z,6.90
2023-05-09T01:16:49.328Z,6.72
2023-05-09T01:19:45.929Z,7.40
2023-05-09T01:22:16.477Z,6.93
2023-05-09T01:25:06.781Z,6.78
2023-05-09T01:27:53.588Z,6.60
2023-05-09T01:30:21.170Z,6.70
2023-05-09T01:32:51.861Z,7.13
2023-05-09T01:35:24.532Z,6.78
2023-05-09T01:37:52.142Z,7.00
2023-05-09T01:40:22.853Z,7.50
2023-05-09T01:42:57.627Z,6.32
2023-05-09T01:45:27.020Z,6.35
2023-05-09T01:47:55.848Z,6.53
2023-05-09T01:50:25.027Z,6.70
2023-05-09T01:52:57.081Z,6.55
2023-05-09T01:55:28.554Z,6.78
2023-05-09T01:57:58.766Z,6.43
2023-05-09T02:00:27.124Z,6.75
2023-05-09T02:02:55.517Z,5.80
2023-05-09T02:05:28.798Z,6.40
2023-05-09T02:07:58.603Z,6.53
2023-05-09T02:10:28.726Z,6.05
2023-05-09T02:12:57.312Z,6.65
2023-05-09T02:15:25.840Z,5.57
2023-05-09T02:17:53.065Z,6.88
2023-05-09T02:20:20.405Z,6.63
2023-05-09T02:22:47.964Z,6.47
2023-05-09T02:25:15.744Z,6.47
2023-05-09T02:27:46.120Z,6.80
2023-05-09T02:30:23.236Z,7.22
2023-05-09T02:32:56.875Z,6.38
2023-05-09T02:35:28.169Z,6.30
2023-05-09T02:37:57.359Z,6.53
2023-05-09T02:40:26.926Z,6.72
2023-05-09T02:42:53.927Z,6.38
2023-05-09T02:45:20.981Z,6.43
2023-05-09T02:47:48.082Z,6.78
2023-05-09T02:50:14.986Z,6.78
2023-05-09T02:52:41.864Z,6.50
2023-05-09T02:55:09.703Z,7.22
2023-05-09T02:57:36.798Z,6.10
2023-05-09T03:00:11.648Z,6.57
2023-05-09T03:02:39.137Z,6.60
2023-05-09T03:05:06.660Z,6.63
2023-05-09T03:07:34.084Z,7.10
2023-05-09T03:10:00.914Z,6.93
2023-05-09T03:12:27.786Z,6.97
2023-05-09T03:14:54.583Z,6.13
2023-05-09T03:17:21.491Z,6.68
2023-05-09T03:19:48.955Z,6.15
2023-05-09T03:22:16.376Z,6.35
2023-05-09T03:24:43.646Z,5.82
2023-05-09T03:27:10.454Z,6.10
2023-05-09T03:29:37.489Z,5.95
2023-05-09T03:32:04.978Z,6.55
2023-05-09T03:34:31.831Z,6.35
2023-05-09T03:36:58.884Z,6.38
2023-05-09T03:39:25.690Z,6.70
2023-05-09T03:41:52.494Z,6.82
2023-05-09T03:44:19.501Z,6.88
2023-05-09T03:46:46.377Z,5.63
2023-05-09T03:49:13.293Z,6.18
2023-05-09T03:51:42.117Z,7.03
2023-05-09T03:54:09.222Z,6.18
2023-05-09T03:56:36.312Z,6.63
2023-05-09T03:59:03.215Z,6.72
2023-05-09T04:01:30.853Z,7.00
2023-05-09T04:03:57.785Z,6.60
2023-05-09T04:06:24.874Z,6.90
2023-05-09T04:08:51.780Z,6.28
2023-05-09T04:11:18.622Z,6.60
2023-05-09T04:13:45.535Z,6.63
2023-05-09T04:16:12.303Z,6.35
2023-05-09T04:18:42.144Z,6.45
2023-05-09T04:21:09.573Z,6.22
2023-05-09T04:23:36.490Z,6.47
2023-05-09T04:26:03.330Z,5.90
2023-05-09T04:28:30.284Z,6.43
2023-05-09T04:30:57.155Z,5.93
2023-05-09T04:33:24.445Z,6.35
2023-05-09T04:35:51.756Z,6.82
2023-05-09T04:38:18.670Z,6.88
2023-05-09T04:40:46.207Z,6.85
2023-05-09T04:43:15.606Z,6.82
2023-05-09T04:45:42.491Z,7.85
2023-05-09T04:48:09.341Z,6.82
2023-05-09T04:50:36.409Z,7.32
2023-05-09T04:53:03.378Z,7.85
2023-05-09T04:55:30.168Z,7.63
2023-05-09T04:57:57.035Z,6.88
2023-05-09T05:00:23.935Z,6.97
2023-05-09T05:02:50.943Z,7.13
2023-05-09T05:05:17.969Z,7.50
2023-05-09T05:10:15.602Z,6.20
2023-05-09T05:12:42.508Z,7.05
2023-05-09T05:15:10.206Z,6.35
2023-05-09T05:17:37.023Z,6.60
2023-05-09T05:20:06.611Z,6.53
2023-05-09T05:22:33.554Z,7.00
2023-05-09T05:25:00.855Z,7.32
2023-05-09T05:27:27.708Z,6.22
2023-05-09T05:29:54.578Z,6.05
2023-05-09T05:32:21.417Z,6.50
2023-05-09T05:34:48.260Z,6.57
2023-05-09T05:37:15.085Z,7.32
2023-05-09T05:39:41.936Z,6.18
2023-05-09T05:42:08.782Z,6.43
2023-05-09T05:44:35.594Z,6.35
2023-05-09T05:47:02.421Z,6.13
2023-05-09T05:49:29.274Z,6.32
2023-05-09T05:51:56.094Z,5.70
2023-05-09T05:54:22.917Z,6.25
2023-05-09T05:56:49.820Z,6.28
2023-05-09T05:59:16.767Z,5.80
2023-05-09T06:01:43.667Z,6.00
2023-05-09T06:04:10.672Z,5.63
2023-05-09T06:06:40.568Z,6.38
2023-05-09T06:09:07.404Z,5.95
2023-05-09T06:11:34.207Z,5.32
2023-05-09T06:14:01.044Z,5.97
2023-05-09T06:16:28.359Z,6.70
2023-05-09T06:18:56.068Z,6.13
2023-05-09T06:21:23.623Z,6.55
2023-05-09T06:24:04.364Z,6.22
2023-05-09T06:26:35.896Z,5.65
2023-05-09T06:29:04.024Z,6.72
2023-05-09T06:31:30.979Z,6.55
2023-05-09T06:33:57.939Z,5.90
2023-05-09T06:36:24.733Z,7.03
2023-05-09T06:38:51.618Z,6.57
2023-05-09T06:41:18.475Z,6.20
2023-05-09T06:43:45.649Z,5.88
2023-05-09T06:46:12.516Z,5.47
2023-05-09T06:48:39.646Z,5.18
2023-05-09T06:51:06.562Z,5.75
2023-05-09T06:53:33.443Z,5.13
2023-05-09T06:56:01.691Z,5.20
2023-05-09T06:58:28.882Z,5.50
2023-05-09T07:00:56.210Z,5.25
2023-05-09T07:03:26.045Z,5.43
2023-05-09T07:05:52.939Z,4.53
2023-05-09T07:08:21.102Z,5.55
2023-05-09T07:10:47.996Z,5.78
2023-05-09T07:13:14.841Z,5.35
2023-05-09T07:15:43.064Z,5.68
2023-05-09T07:18:10.396Z,5.18
2023-05-09T07:20:37.512Z,5.53
2023-05-09T07:23:05.884Z,5.38
2023-05-09T07:25:32.999Z,4.53
2023-05-09T07:27:59.926Z,5.10
2023-05-09T07:30:27.031Z,4.72
2023-05-09T07:32:54.060Z,4.60
2023-05-09T07:35:21.287Z,5.65
2023-05-09T07:37:48.317Z,4.97
2023-05-09T07:40:15.799Z,4.75
2023-05-09T07:42:49.404Z,4.53
2023-05-09T07:45:17.543Z,4.90
2023-05-09T07:47:45.437Z,3.80
2023-05-09T07:50:12.425Z,4.13
2023-05-09T07:52:39.228Z,4.65
2023-05-09T07:55:06.723Z,3.63
2023-05-09T07:57:33.685Z,4.05
2023-05-09T08:00:00.735Z,4.57
2023-05-09T08:02:27.665Z,4.90
2023-05-09T08:04:54.630Z,4.70
2023-05-09T08:07:21.599Z,4.43
2023-05-09T08:09:48.437Z,4.38
2023-05-09T08:12:15.306Z,4.63
2023-05-09T08:14:42.163Z,4.25
2023-05-09T08:17:09.065Z,4.65
2023-05-09T08:19:35.879Z,4.85
2023-05-09T08:22:03.051Z,4.90
2023-05-09T08:24:29.964Z,4.57
2023-05-09T08:26:56.828Z,4.22
2023-05-09T08:29:23.816Z,3.83
2023-05-09T08:31:51.468Z,4.20
2023-05-09T08:34:18.393Z,4.30
2023-05-09T08:36:46.975Z,3.95
2023-05-09T08:39:14.382Z,4.10
2023-05-09T08:41:42.418Z,4.20
2023-05-09T08:44:09.778Z,3.92
2023-05-09T08:46:44.048Z,4.00
2023-05-09T08:49:11.959Z,3.88
2023-05-09T08:51:40.546Z,3.67
2023-05-09T08:54:07.834Z,4.13
2023-05-09T08:56:36.349Z,3.35
2023-05-09T08:59:05.627Z,3.40
2023-05-09T09:01:37.802Z,3.70
2023-05-09T09:04:09.630Z,3.00
2023-05-09T09:06:37.314Z,3.75
2023-05-09T09:09:08.549Z,3.88
2023-05-09T09:11:37.653Z,2.42
2023-05-09T09:14:14.317Z,2.95
2023-05-09T09:16:44.434Z,2.92
2023-05-09T09:19:16.348Z,2.92
2023-05-09T09:21:47.373Z,3.70
2023-05-09T09:24:14.833Z,3.08
2023-05-09T09:26:48.871Z,3.88
2023-05-09T09:29:17.777Z,3.42
2023-05-09T09:31:53.992Z,3.80
2023-05-09T09:34:23.359Z,2.60
2023-05-09T09:36:50.671Z,3.00
2023-05-09T09:39:17.691Z,3.05
2023-05-09T09:41:44.927Z,2.50
2023-05-09T09:44:17.978Z,2.55
2023-05-09T09:46:54.515Z,2.45
2023-05-09T09:49:24.141Z,2.70
2023-05-09T09:51:58.785Z,2.50
2023-05-09T09:54:29.213Z,2.67
2023-05-09T09:56:56.918Z,2.72
2023-05-09T09:59:26.015Z,2.45
2023-05-09T10:02:07.622Z,2.75
2023-05-09T10:04:41.810Z,2.90
2023-05-09T10:07:13.692Z,2.53
2023-05-09T10:09:42.411Z,2.75
2023-05-09T10:12:09.639Z,3.05
2023-05-09T10:14:44.069Z,2.63
2023-05-09T10:17:14.999Z,2.65
2023-05-09T10:19:47.606Z,3.15
2023-05-09T10:22:19.180Z,3.17
2023-05-09T10:25:01.580Z,2.53
2023-05-09T10:27:34.889Z,2.97
2023-05-09T10:30:08.785Z,2.95
2023-05-09T10:32:38.649Z,2.58
2023-05-09T10:35:10.467Z,2.72
2023-05-09T10:37:37.654Z,3.15
2023-05-09T10:40:05.969Z,2.67
2023-05-09T10:42:32.892Z,2.75
2023-05-09T10:45:00.131Z,3.20
2023-05-09T10:47:28.962Z,3.10
2023-05-09T10:49:56.235Z,2.72
2023-05-09T10:52:23.266Z,2.88
2023-05-09T10:55:05.068Z,3.15
2023-05-09T10:57:32.539Z,2.90
2023-05-09T11:00:00.507Z,3.47
2023-05-09T11:02:32.467Z,3.30
2023-05-09T11:05:20.293Z,3.05
2023-05-09T11:07:47.237Z,3.38
2023-05-09T11:10:27.294Z,3.38
2023-05-09T11:15:27.692Z,2.90
2023-05-09T11:18:07.919Z,3.53
2023-05-09T11:23:06.875Z,3.80
2023-05-09T11:25:33.993Z,3.10
2023-05-09T11:28:02.043Z,3.83
2023-05-09T11:30:43.729Z,5.07
2023-05-09T11:33:24.976Z,4.28
2023-05-09T11:36:19.492Z,4.60
2023-05-09T11:38:49.111Z,4.35
2023-05-09T11:41:16.277Z,4.72
2023-05-09T11:43:52.591Z,4.05
2023-05-09T11:46:19.470Z,5.00
2023-05-09T11:48:48.692Z,4.50
2023-05-09T11:51:20.139Z,4.63
2023-05-09T11:53:50.658Z,5.05
2023-05-09T11:56:18.055Z,4.60
2023-05-09T11:58:46.729Z,4.60
2023-05-09T12:01:13.736Z,4.90
2023-05-09T12:03:45.316Z,5.40
2023-05-09T12:06:20.001Z,5.20
2023-05-09T12:08:48.010Z,4.80
2023-05-09T12:11:15.752Z,4.50
2023-05-09T12:13:52.365Z,5.10
2023-05-09T12:16:21.054Z,5.43
2023-05-09T12:18:52.715Z,5.38
2023-05-09T12:21:21.596Z,4.85
2023-05-09T12:23:51.275Z,4.93
2023-05-09T12:26:22.527Z,4.82
2023-05-09T12:28:50.523Z,4.90
2023-05-09T12:31:18.536Z,5.65
2023-05-09T12:33:45.944Z,4.72
2023-05-09T12:36:14.022Z,5.10
2023-05-09T12:38:41.194Z,5.20
2023-05-09T12:41:29.607Z,3.97
2023-05-09T12:43:57.702Z,4.60
2023-05-09T12:46:25.011Z,4.65
2023-05-09T12:48:52.013Z,4.78
2023-05-09T12:51:21.212Z,3.67
2023-05-09T12:53:48.873Z,4.57
2023-05-09T12:56:23.332Z,3.92
2023-05-09T12:58:52.142Z,3.85
2023-05-09T13:01:29.661Z,3.33
2023-05-09T13:04:06.632Z,4.40
2023-05-09T13:06:36.112Z,4.20
2023-05-09T13:09:08.086Z,3.00
2023-05-09T13:11:37.694Z,4.22
2023-05-09T13:14:04.757Z,3.90
2023-05-09T13:16:31.732Z,3.70
2023-05-09T13:18:58.536Z,3.20
2023-05-09T13:21:25.615Z,2.63
2023-05-09T13:23:52.568Z,3.10
2023-05-09T13:26:19.760Z,3.03
2023-05-09T13:28:46.589Z,3.28
2023-05-09T13:31:13.787Z,2.97
2023-05-09T13:33:40.712Z,3.13
2023-05-09T13:36:07.743Z,2.92
2023-05-09T13:38:38.895Z,3.30
2023-05-09T13:41:07.004Z,3.00
2023-05-09T13:43:34.885Z,2.55
2023-05-09T13:46:02.461Z,3.03
2023-05-09T13:48:29.349Z,3.30
2023-05-09T13:50:57.657Z,2.80
2023-05-09T13:53:24.542Z,3.22
2023-05-09T13:55:51.364Z,2.97
2023-05-09T13:58:18.295Z,2.92
2023-05-09T14:00:45.461Z,2.70
2023-05-09T14:03:12.286Z,2.70
2023-05-09T14:05:39.123Z,2.47
2023-05-09T14:08:07.872Z,2.35
2023-05-09T14:10:34.771Z,1.85
2023-05-09T14:13:01.613Z,2.83
2023-05-09T14:15:29.508Z,2.05
2023-05-09T14:17:56.952Z,2.47
2023-05-09T14:20:24.024Z,2.13
2023-05-09T14:22:50.825Z,2.90
2023-05-09T14:25:17.671Z,2.63
2023-05-09T14:27:44.470Z,2.03
2023-05-09T14:30:12.097Z,2.58
2023-05-09T14:32:38.941Z,2.67
2023-05-09T14:35:06.507Z,2.42
2023-05-09T14:37:33.410Z,2.42
2023-05-09T14:40:05.407Z,2.35
2023-05-09T14:42:32.891Z,2.35
2023-05-09T14:44:59.761Z,2.47
2023-05-09T14:47:26.786Z,3.17
2023-05-09T14:49:53.984Z,2.58
2023-05-09T14:52:20.898Z,1.75
2023-05-09T14:54:47.742Z,1.63
2023-05-09T14:57:14.539Z,1.90
2023-05-09T14:59:41.444Z,1.60
2023-05-09T15:02:08.230Z,1.55
2023-05-09T15:04:35.102Z,1.77
2023-05-09T15:07:01.929Z,1.73
2023-05-09T15:09:28.761Z,2.78
2023-05-09T15:11:55.811Z,2.25
2023-05-09T15:14:22.661Z,2.20
2023-05-09T15:16:52.203Z,2.05
2023-05-09T15:19:19.370Z,1.98
2023-05-09T15:21:46.647Z,2.03
2023-05-09T15:24:13.630Z,1.98
2023-05-09T15:26:40.575Z,1.98
2023-05-09T15:29:07.410Z,1.88
2023-05-09T15:31:36.861Z,1.55
2023-05-09T15:34:04.548Z,1.65
2023-05-09T15:36:32.162Z,2.25
2023-05-09T15:38:59.340Z,1.80
2023-05-09T15:41:26.218Z,2.00
2023-05-09T15:43:53.227Z,1.83
2023-05-09T15:46:20.156Z,1.73
2023-05-09T15:48:47.265Z,1.83
2023-05-09T15:51:14.270Z,1.65
2023-05-09T15:53:41.340Z,2.08
2023-05-09T15:56:08.907Z,2.10
2023-05-09T15:58:35.954Z,2.50
2023-05-09T16:01:06.038Z,2.20
2023-05-09T16:06:00.988Z,1.77
2023-05-09T16:08:27.825Z,2.35
2023-05-09T16:10:54.716Z,1.85
2023-05-09T16:13:21.744Z,2.25
2023-05-09T16:15:50.095Z,2.45
2023-05-09T16:18:17.159Z,1.95
2023-05-09T16:20:44.237Z,2.28
2023-05-09T16:23:11.860Z,2.50
2023-05-09T16:25:38.933Z,2.38
2023-05-09T16:28:07.320Z,2.50
2023-05-09T16:30:34.623Z,2.25
2023-05-09T16:33:01.706Z,2.80
2023-05-09T16:35:29.161Z,2.53
2023-05-09T16:37:56.217Z,2.83
2023-05-09T16:40:23.399Z,2.72
2023-05-09T16:42:59.533Z,2.55
2023-05-09T16:45:26.613Z,2.50
2023-05-09T16:47:55.613Z,2.70
2023-05-09T16:50:23.243Z,2.45
2023-05-09T16:52:51.694Z,2.60
2023-05-09T16:55:18.682Z,3.00
2023-05-09T16:57:45.802Z,2.80
2023-05-09T17:00:13.647Z,2.88
2023-05-09T17:02:43.687Z,3.40
2023-05-09T17:05:10.770Z,3.33
2023-05-09T17:07:48.756Z,3.30
2023-05-09T17:10:15.996Z,3.10
2023-05-09T17:12:43.160Z,3.40
2023-05-09T17:15:16.589Z,3.20
2023-05-09T17:17:43.648Z,3.70
2023-05-09T17:20:11.710Z,3.08
2023-05-09T17:22:38.762Z,3.08
2023-05-09T17:25:06.699Z,3.65
2023-05-09T17:27:33.741Z,4.15
2023-05-09T17:30:00.827Z,3.60
2023-05-09T17:32:30.377Z,3.20
2023-05-09T17:34:57.336Z,3.15
2023-05-09T17:37:24.316Z,2.70
2023-05-09T17:39:51.711Z,3.03
2023-05-09T17:42:18.693Z,2.95
2023-05-09T17:44:45.622Z,3.22
2023-05-09T17:47:14.246Z,2.78
2023-05-09T17:49:41.289Z,3.05
2023-05-09T17:52:08.213Z,2.80
2023-05-09T17:54:36.696Z,3.08
2023-05-09T17:57:03.650Z,2.47
2023-05-09T17:59:30.618Z,3.17
2023-05-09T18:01:57.634Z,3.00
2023-05-09T18:04:25.800Z,2.60
2023-05-09T18:06:52.750Z,2.67
2023-05-09T18:09:19.604Z,3.22
2023-05-09T18:11:46.454Z,2.60
2023-05-09T18:14:31.786Z,2.85
2023-05-09T18:16:58.683Z,2.83
2023-05-09T18:19:25.684Z,2.05
2023-05-09T18:21:53.681Z,2.78
2023-05-09T18:24:23.113Z,2.83
2023-05-09T18:26:50.267Z,2.75
2023-05-09T18:29:17.411Z,2.88
2023-05-09T18:31:45.011Z,3.10
2023-05-09T18:34:12.980Z,2.78
2023-05-09T18:36:39.867Z,2.28
2023-05-09T18:39:10.011Z,2.55
2023-05-09T18:41:37.376Z,3.05
2023-05-09T18:44:16.608Z,2.15
2023-05-09T18:46:43.562Z,2.00
2023-05-09T18:49:11.181Z,2.17
2023-05-09T18:54:25.698Z,2.60
2023-05-09T18:56:53.214Z,2.58
2023-05-09T18:59:42.819Z,2.65
2023-05-09T19:02:09.746Z,2.78
2023-05-09T19:04:38.428Z,2.60
2023-05-09T19:07:05.603Z,2.13
2023-05-09T19:09:32.677Z,2.50
2023-05-09T19:12:03.097Z,2.88
2023-05-09T19:14:37.884Z,2.53
2023-05-09T19:17:05.789Z,2.13
2023-05-09T19:19:33.110Z,3.17
2023-05-09T19:22:01.681Z,2.90
2023-05-09T19:24:28.637Z,2.53
2023-05-09T19:26:55.642Z,2.50
2023-05-09T19:29:22.593Z,2.63
2023-05-09T19:31:49.557Z,2.67
2023-05-09T19:34:16.868Z,2.38
2023-05-09T19:36:43.736Z,2.65
2023-05-09T19:39:11.238Z,2.90
2023-05-09T19:41:38.526Z,2.42
2023-05-09T19:44:07.301Z,2.75
2023-05-09T19:46:35.391Z,2.53
2023-05-09T19:49:02.460Z,2.38
2023-05-09T19:51:29.639Z,2.28
2023-05-09T19:53:56.733Z,2.72
2023-05-09T19:56:23.977Z,2.47
2023-05-09T19:58:50.947Z,2.78
2023-05-09T20:01:19.288Z,2.70
2023-05-09T20:03:47.010Z,2.70
2023-05-09T20:06:14.252Z,2.60
2023-05-09T20:08:41.147Z,2.72
2023-05-09T20:11:08.147Z,2.67
2023-05-09T20:13:35.112Z,2.30
2023-05-09T20:16:03.268Z,2.75
2023-05-09T20:18:33.330Z,2.83
2023-05-09T20:21:02.093Z,2.33
2023-05-09T20:23:29.707Z,2.65
2023-05-09T20:25:56.735Z,2.50
2023-05-09T20:28:24.204Z,2.95
2023-05-09T20:30:51.277Z,2.58
2023-05-09T20:33:19.032Z,3.30
2023-05-09T20:35:46.109Z,2.92
2023-05-09T20:38:13.016Z,2.80
2023-05-09T20:40:41.110Z,3.25
2023-05-09T20:43:08.665Z,3.55
2023-05-09T20:45:37.435Z,3.10
2023-05-09T20:48:05.761Z,3.17
2023-05-09T20:50:34.245Z,3.00
2023-05-09T20:53:01.234Z,3.28
2023-05-09T20:55:28.127Z,3.40
2023-05-09T20:57:55.074Z,3.10
2023-05-09T21:00:21.928Z,3.30
2023-05-09T21:02:48.856Z,2.55
2023-05-09T21:05:15.927Z,2.88
2023-05-09T21:07:42.715Z,3.22
2023-05-09T21:10:10.421Z,3.15
2023-05-09T21:12:37.330Z,3.40
2023-05-09T21:15:04.801Z,3.50
2023-05-09T21:17:32.067Z,3.80
2023-05-09T21:19:58.947Z,2.15
2023-05-09T21:22:25.748Z,1.25
2023-05-09T21:24:52.942Z,1.40
2023-05-09T21:27:19.727Z,0.90
2023-05-09T21:29:49.282Z,0.85
2023-05-09T21:32:19.516Z,0.70
2023-05-09T21:34:48.079Z,0.65
2023-05-09T21:37:15.290Z,0.60
2023-05-09T21:39:42.205Z,0.60
2023-05-09T21:42:09.096Z,0.30
2023-05-09T21:44:36.440Z,0.30
2023-05-09T21:47:03.428Z,0.60
2023-05-09T21:49:30.408Z,0.43
2023-05-09T21:51:57.351Z,0.35
2023-05-09T21:54:24.163Z,0.40
2023-05-09T21:56:51.670Z,0.40
2023-05-09T21:59:20.840Z,0.50
2023-05-09T22:01:48.724Z,0.40
2023-05-09T22:04:15.914Z,0.35
2023-05-09T22:06:43.083Z,0.30
2023-05-09T22:09:10.646Z,0.40
2023-05-09T22:11:37.756Z,0.30
2023-05-09T22:14:04.783Z,0.38
2023-05-09T22:16:31.661Z,0.30
2023-05-09T22:18:58.676Z,0.40
2023-05-09T22:21:25.509Z,0.30
2023-05-09T22:23:52.549Z,0.30
2023-05-09T22:26:19.656Z,0.35
2023-05-09T22:28:50.054Z,0.20
2023-05-09T22:31:17.147Z,0.20
2023-05-09T22:33:43.966Z,0.20
2023-05-09T22:36:10.811Z,0.28
2023-05-09T22:38:37.690Z,0.30
2023-05-09T22:41:04.527Z,0.30
2023-05-09T22:43:38.734Z,0.20
2023-05-09T22:46:06.511Z,0.25
2023-05-09T22:48:33.515Z,0.30
2023-05-09T22:51:00.356Z,0.20
2023-05-09T22:53:28.122Z,0.30
2023-05-09T22:55:55.268Z,0.22
2023-05-09T22:58:22.720Z,0.30
2023-05-09T23:00:49.698Z,0.30
2023-05-09T23:03:16.640Z,0.35
2023-05-09T23:05:43.741Z,0.40
2023-05-09T23:08:10.661Z,0.20
2023-05-09T23:10:37.522Z,0.38
2023-05-09T23:13:04.862Z,0.30
2023-05-09T23:15:31.929Z,0.40
2023-05-09T23:17:58.847Z,0.20
2023-05-09T23:20:26.682Z,0.28
2023-05-09T23:22:53.517Z,0.40
2023-05-09T23:25:20.411Z,0.38
2023-05-09T23:27:47.310Z,0.40
2023-05-09T23:30:14.579Z,0.40
2023-05-09T23:32:41.801Z,0.30
2023-05-09T23:35:09.121Z,0.40
2023-05-09T23:37:36.000Z,0.40
2023-05-09T23:40:04.598Z,0.50
2023-05-09T23:42:31.437Z,0.40
2023-05-09T23:44:59.632Z,0.40
2023-05-09T23:47:26.734Z,0.30
2023-05-09T23:49:53.583Z,0.30
2023-05-09T23:52:20.434Z,0.30
2023-05-09T23:54:47.216Z,0.30
2023-05-09T23:57:14.028Z,0.20
2023-05-09T23:59:42.478Z,0.30
